createdAt,value
2019-06-01T00:00:26.073Z,16
2019-06-01T00:15:52.316Z,15.8
2019-06-01T00:31:10.349Z,15.6
2019-06-01T00:46:25.033Z,15.5
2019-06-01T01:01:26.529Z,15.3
2019-06-01T01:16:57.161Z,15.2
2019-06-01T01:32:13.681Z,15.1
2019-06-01T01:47:29.822Z,15.1
2019-06-01T02:02:45.985Z,15
2019-06-01T02:17:57.848Z,15
2019-06-01T02:33:18.446Z,15
2019-06-01T02:48:34.313Z,15
2019-06-01T03:03:50.545Z,15
2019-06-01T03:18:56.363Z,15.2
2019-06-01T03:34:22.858Z,15.3
2019-06-01T03:49:39.169Z,15.2
2019-06-01T04:04:55.344Z,15.3
2019-06-01T04:20:12.308Z,15.3
2019-06-01T04:35:27.200Z,15.5
2019-06-01T04:50:44.540Z,15.8
2019-06-01T05:06:00.954Z,16.1
2019-06-01T05:21:04.089Z,16.5
2019-06-01T05:36:34.597Z,17
2019-06-01T05:51:51.766Z,17.5
2019-06-01T06:07:09.159Z,18.1
2019-06-01T06:22:26.793Z,18.7
2019-06-01T06:37:44.775Z,19.3
2019-06-01T06:53:03.039Z,20.1
2019-06-01T07:08:16.218Z,20.8
2019-06-01T07:23:40.582Z,21.5
2019-06-01T07:38:59.871Z,22.3
2019-06-01T07:54:20.233Z,23.3
2019-06-01T08:09:32.728Z,23.8
2019-06-01T08:24:59.873Z,23.8
2019-06-01T08:40:19.956Z,23.9
2019-06-01T08:55:40.459Z,25.1
2019-06-01T09:10:49.308Z,24.4
2019-06-01T09:26:21.548Z,25.4
2019-06-01T09:41:42.690Z,26.1
2019-06-01T09:57:03.917Z,25.7
2019-06-01T10:12:05.395Z,26.1
2019-06-01T10:27:40.432Z,26.1
2019-06-01T10:43:07.805Z,27.4
2019-06-01T10:58:29.582Z,27.4
2019-06-01T11:13:51.546Z,27.5
2019-06-01T11:28:57.897Z,28.3
2019-06-01T11:44:34.382Z,28.5
2019-06-01T11:59:58.601Z,28.7
2019-06-01T12:15:21.277Z,28.9
2019-06-01T12:30:43.988Z,29
2019-06-01T12:46:06.518Z,29
2019-06-01T13:01:29.484Z,29.2
2019-06-01T13:17:01.996Z,29.4
2019-06-01T13:32:18.157Z,29.8
2019-06-01T13:47:43.369Z,30.1
2019-06-01T14:02:53.760Z,30.3
2019-06-01T14:18:26.604Z,30.3
2019-06-01T14:33:56.640Z,30.5
2019-06-01T14:49:21.124Z,30.5
2019-06-01T15:04:46.206Z,30.5
2019-06-01T15:19:49.954Z,30.3
2019-06-01T15:35:25.786Z,30.2
2019-06-01T15:51:04.941Z,29.9
2019-06-01T16:06:24.711Z,29.7
2019-06-01T16:21:48.912Z,29.6
2019-06-01T16:37:12.966Z,29.2
2019-06-01T16:52:22.299Z,29
2019-06-01T17:07:58.640Z,28.5
2019-06-01T17:23:27.198Z,28.3
2019-06-01T17:38:46.930Z,27.9
2019-06-01T17:54:09.889Z,27.6
2019-06-01T18:09:14.844Z,27.1
2019-06-01T18:24:49.229Z,26.6
2019-06-01T18:40:16.863Z,26.1
2019-06-01T18:55:38.305Z,25.5
2019-06-01T19:10:59.303Z,25
2019-06-01T19:26:02.689Z,24.5
2019-06-01T19:41:44.024Z,24
2019-06-01T19:56:59.954Z,23.5
2019-06-01T20:12:20.480Z,23
2019-06-01T20:27:39.234Z,22.5
2019-06-01T20:42:44.263Z,22
2019-06-01T20:58:18.308Z,21.8
2019-06-01T21:13:48.601Z,21.5
2019-06-01T21:28:55.405Z,21.4
2019-06-01T21:44:15.304Z,21.1
2019-06-01T21:59:22.677Z,20.8
2019-06-01T22:14:51.401Z,20.6
2019-06-01T22:30:09.925Z,20.2
2019-06-01T22:45:29.449Z,20
2019-06-01T23:00:46.428Z,19.6
2019-06-01T23:15:58.264Z,19.2
2019-06-01T23:31:22.278Z,18.8
2019-06-01T23:46:39.761Z,18.5
